Time;durP1;ratioP1;P1;durP2;ratioP2;P2;SDS_P1;SDS_P2;PMS_P1;PMS_P2;Temp;Humidity;BMP_temperature;BMP_pressure;BME280_temperature;BME280_humidity;BME280_pressure;Samples;Min_cycle;Max_cycle;Signal;HPM_P1;HPM_P2
2021/12/23 00:01:46;;;;;;;;;;;-1.30;99.90;;;;;;4997189;28;89055;-34
2021/12/23 00:04:12;;;;;;;;;;;-1.30;99.90;;;;;;4996573;28;89843;-34
2021/12/23 00:06:39;;;;;;;;;;;-1.40;99.90;;;;;;4996883;28;87602;-32
2021/12/23 00:09:05;;;;;;;;;;;-1.40;99.90;;;;;;4997196;28;87602;-39
2021/12/23 00:11:31;;;;;;;;;;;-1.40;99.90;;;;;;4995385;28;90296;-38
2021/12/23 00:14:05;;;;;;;;;;;-1.40;99.90;;;;;;4996690;28;89871;-41
2021/12/23 00:24:39;;;;;;;;;;;-1.30;99.90;;;;;;4998666;28;88918;-34
2021/12/23 00:27:05;;;;;;;;;;;-1.20;99.90;;;;;;4998411;28;87608;-39
2021/12/23 00:29:31;;;;;;;;;;;-1.20;99.90;;;;;;4998425;28;87654;-34
2021/12/23 00:31:57;;;;;;;;;;;-1.20;99.90;;;;;;4999831;28;89485;-34
2021/12/23 00:34:22;;;;;;;;;;;-1.20;99.90;;;;;;4999590;28;89569;-37
2021/12/23 00:36:48;;;;;;;;;;;-1.10;99.90;;;;;;5000474;28;87979;-38
2021/12/23 00:39:15;;;;;;;;;;;-1.10;99.90;;;;;;5000369;28;87690;-37
2021/12/23 00:41:43;;;;;;;;;;;-1.10;99.90;;;;;;5015539;28;91511;-39
2021/12/23 00:44:08;;;;;;;;;;;-1.10;99.90;;;;;;4999516;28;89683;-37
2021/12/23 00:46:34;;;;;;;;;;;-1.10;99.90;;;;;;5000333;28;87896;-32
2021/12/23 00:48:59;;;;;;;;;;;-1.10;99.90;;;;;;5000400;28;87698;-33
2021/12/23 00:51:25;;;;;;;;;;;-1.10;99.90;;;;;;4999898;28;90164;-38
2021/12/23 00:53:53;;;;;;;;;;;-1.10;99.90;;;;;;4999772;28;90003;-32
2021/12/23 00:56:19;;;;;;;;;;;-1.00;99.90;;;;;;4999394;28;88510;-37
2021/12/23 00:58:44;;;;;;;;;;;-1.00;99.90;;;;;;4999947;28;87490;-38
2021/12/23 01:01:10;;;;;;;;;;;-1.00;99.90;;;;;;5014870;28;90286;-34
2021/12/23 01:03:36;;;;;;;;;;;-1.00;99.90;;;;;;4999864;28;88580;-38
2021/12/23 01:06:02;;;;;;;;;;;-1.00;99.90;;;;;;4999322;28;87527;-38
2021/12/23 01:08:27;;;;;;;;;;;-0.90;99.90;;;;;;5015741;28;87538;-37
2021/12/23 01:10:57;;;;;;;;;;;-0.90;99.90;;;;;;4999258;28;90462;-45
2021/12/23 01:13:26;;;;;;;;;;;-0.90;99.90;;;;;;4999300;28;88877;-36
2021/12/23 01:18:42;;;;;;;;;;;-0.90;99.90;;;;;;4999555;28;87916;-37
2021/12/23 01:23:47;;;;;;;;;;;-0.90;99.90;;;;;;4977236;28;88325;-37
2021/12/23 01:26:18;;;;;;;;;;;-0.90;99.90;;;;;;4979806;28;88185;-39
2021/12/23 01:28:43;;;;;;;;;;;-0.80;99.90;;;;;;4979825;28;87640;-38
2021/12/23 01:31:09;;;;;;;;;;;-0.80;99.90;;;;;;4979197;28;88977;-40
2021/12/23 01:33:34;;;;;;;;;;;-0.80;99.90;;;;;;4978798;28;89591;-40
2021/12/23 01:36:00;;;;;;;;;;;-0.80;99.90;;;;;;4977679;28;87430;-42
2021/12/23 01:38:25;;;;;;;;;;;-0.80;99.90;;;;;;4978098;28;87681;-39
2021/12/23 01:40:51;;;;;;;;;;;-0.80;99.90;;;;;;4977835;28;89066;-39
2021/12/23 01:43:19;;;;;;;;;;;-0.70;99.90;;;;;;4977201;28;89551;-42
2021/12/23 01:45:45;;;;;;;;;;;-0.70;99.90;;;;;;4978732;28;87993;-41
2021/12/23 01:48:11;;;;;;;;;;;-0.60;99.90;;;;;;4978533;28;88628;-36
2021/12/23 01:50:39;;;;;;;;;;;-0.60;99.90;;;;;;4977612;28;89755;-40
2021/12/23 01:53:04;;;;;;;;;;;-0.70;99.90;;;;;;4978195;28;89081;-41
2021/12/23 01:55:30;;;;;;;;;;;-0.70;99.90;;;;;;4979345;28;88616;-37
2021/12/23 01:57:57;;;;;;;;;;;-0.60;99.90;;;;;;4961364;28;88617;-34
2021/12/23 02:00:26;;;;;;;;;;;-0.60;99.90;;;;;;4979003;28;90121;-34
2021/12/23 02:02:52;;;;;;;;;;;-0.60;99.90;;;;;;4977782;28;89598;-38
2021/12/23 02:05:18;;;;;;;;;;;-0.60;99.90;;;;;;4977190;28;87475;-39
2021/12/23 02:07:44;;;;;;;;;;;-0.70;99.90;;;;;;4977744;28;88966;-35
2021/12/23 02:10:10;;;;;;;;;;;-0.70;99.90;;;;;;4977547;28;90090;-41
2021/12/23 02:12:35;;;;;;;;;;;-0.70;99.90;;;;;;4977426;28;89676;-33
2021/12/23 02:15:01;;;;;;;;;;;-0.70;99.90;;;;;;4976813;28;87813;-38
2021/12/23 02:17:26;;;;;;;;;;;-0.70;99.90;;;;;;4977854;28;87733;-34
2021/12/23 02:19:53;;;;;;;;;;;-0.70;99.90;;;;;;4975724;28;90115;-40
2021/12/23 02:22:18;;;;;;;;;;;-0.70;99.90;;;;;;4977329;28;89802;-37
2021/12/23 02:24:44;;;;;;;;;;;-0.70;99.90;;;;;;4978933;28;87520;-39
2021/12/23 02:27:10;;;;;;;;;;;-0.70;99.90;;;;;;4978775;28;87502;-37
2021/12/23 02:29:35;;;;;;;;;;;-0.60;99.90;;;;;;4979040;28;88686;-37
2021/12/23 02:32:01;;;;;;;;;;;-0.60;99.90;;;;;;4977895;28;89538;-38
2021/12/23 02:34:26;;;;;;;;;;;-0.60;99.90;;;;;;4978163;28;87710;-40
2021/12/23 02:36:53;;;;;;;;;;;-0.60;99.90;;;;;;4978632;28;89011;-33
2021/12/23 02:39:20;;;;;;;;;;;-0.50;99.90;;;;;;4977752;28;90384;-38
2021/12/23 02:41:45;;;;;;;;;;;-0.50;99.90;;;;;;4977943;28;89589;-40
2021/12/23 02:44:11;;;;;;;;;;;-0.50;99.90;;;;;;4970363;28;88541;-38
2021/12/23 02:46:37;;;;;;;;;;;-0.50;99.90;;;;;;4958985;28;88184;-42
2021/12/23 02:49:03;;;;;;;;;;;-0.40;99.90;;;;;;4940702;28;90486;-39
2021/12/23 02:51:28;;;;;;;;;;;-0.50;99.90;;;;;;4957959;28;89047;-41
2021/12/23 02:53:54;;;;;;;;;;;-0.50;99.90;;;;;;4958662;28;87562;-36
2021/12/23 02:56:19;;;;;;;;;;;-0.50;99.90;;;;;;4958911;28;87727;-39
2021/12/23 02:58:45;;;;;;;;;;;-0.50;99.90;;;;;;4958651;28;90135;-40
2021/12/23 03:01:11;;;;;;;;;;;-0.50;99.90;;;;;;4957950;28;90142;-38
2021/12/23 03:03:37;;;;;;;;;;;-0.40;99.90;;;;;;4956849;28;87669;-38
2021/12/23 03:06:02;;;;;;;;;;;-0.40;99.90;;;;;;4958498;28;87752;-38
2021/12/23 03:08:31;;;;;;;;;;;-0.40;99.90;;;;;;4958474;28;90219;-39
2021/12/23 03:10:56;;;;;;;;;;;-0.40;99.90;;;;;;4958000;28;89651;-41
2021/12/23 03:13:22;;;;;;;;;;;-0.40;99.90;;;;;;4958448;28;88332;-37
2021/12/23 03:15:47;;;;;;;;;;;-0.40;99.90;;;;;;4958349;28;87821;-39
2021/12/23 03:18:13;;;;;;;;;;;-0.40;99.90;;;;;;4958060;28;89911;-38
2021/12/23 03:20:39;;;;;;;;;;;-0.40;99.90;;;;;;4957096;28;89647;-39
2021/12/23 03:23:04;;;;;;;;;;;-0.40;99.90;;;;;;4957783;28;87578;-42
2021/12/23 03:25:30;;;;;;;;;;;-0.40;99.90;;;;;;4957214;28;88412;-36
2021/12/23 03:27:55;;;;;;;;;;;-0.30;99.90;;;;;;4958153;28;88771;-39
2021/12/23 03:30:21;;;;;;;;;;;-0.30;99.90;;;;;;4957676;28;89345;-39
2021/12/23 03:32:46;;;;;;;;;;;-0.30;99.90;;;;;;4958555;28;87867;-37
2021/12/23 03:35:12;;;;;;;;;;;-0.30;99.90;;;;;;4958157;28;87600;-40
2021/12/23 03:37:37;;;;;;;;;;;-0.20;99.90;;;;;;4958308;28;90238;-41
2021/12/23 03:40:03;;;;;;;;;;;-0.20;99.90;;;;;;4958380;28;90021;-40
2021/12/23 03:42:29;;;;;;;;;;;-0.20;99.90;;;;;;4957879;28;87568;-38
2021/12/23 03:44:54;;;;;;;;;;;-0.30;99.90;;;;;;4958418;28;87510;-38
2021/12/23 03:47:20;;;;;;;;;;;-0.30;99.90;;;;;;4957537;28;90131;-37
2021/12/23 03:49:45;;;;;;;;;;;-0.30;99.90;;;;;;4957683;28;88445;-38
2021/12/23 03:52:11;;;;;;;;;;;-0.30;99.90;;;;;;4960532;28;87976;-37
2021/12/23 03:54:36;;;;;;;;;;;-0.30;99.90;;;;;;4960319;28;87682;-38
2021/12/23 03:57:02;;;;;;;;;;;-0.20;99.90;;;;;;4959503;28;89567;-34
2021/12/23 03:59:27;;;;;;;;;;;-0.20;99.90;;;;;;4959781;28;89453;-39
2021/12/23 04:01:53;;;;;;;;;;;-0.30;99.90;;;;;;4962010;28;87627;-38
2021/12/23 04:04:18;;;;;;;;;;;-0.30;99.90;;;;;;4958692;28;87600;-35
2021/12/23 04:06:45;;;;;;;;;;;-0.20;99.90;;;;;;4959006;28;90720;-40
2021/12/23 04:09:10;;;;;;;;;;;-0.20;99.90;;;;;;4958425;28;89482;-40
2021/12/23 04:11:36;;;;;;;;;;;-0.20;99.90;;;;;;4958906;28;87560;-37
2021/12/23 04:14:01;;;;;;;;;;;-0.10;99.90;;;;;;4958550;28;87607;-36
2021/12/23 04:16:27;;;;;;;;;;;-0.10;99.90;;;;;;4959035;28;89679;-41
2021/12/23 04:18:54;;;;;;;;;;;0.00;99.90;;;;;;4958065;28;89799;-39
2021/12/23 04:21:19;;;;;;;;;;;0.00;99.90;;;;;;4958116;28;87560;-37
2021/12/23 04:23:45;;;;;;;;;;;0.00;99.90;;;;;;4959758;28;87879;-38
2021/12/23 04:26:10;;;;;;;;;;;0.00;99.90;;;;;;4959620;28;90248;-37
2021/12/23 04:28:45;;;;;;;;;;;0.10;99.90;;;;;;4979018;28;89971;-41
2021/12/23 04:31:11;;;;;;;;;;;0.10;99.90;;;;;;4979671;28;87647;-34
2021/12/23 04:33:37;;;;;;;;;;;0.10;99.90;;;;;;4979843;28;87697;-37
2021/12/23 04:36:02;;;;;;;;;;;0.10;99.90;;;;;;4980279;28;89881;-34
2021/12/23 04:38:28;;;;;;;;;;;0.10;99.90;;;;;;4980380;28;89627;-40
2021/12/23 04:40:53;;;;;;;;;;;0.10;99.90;;;;;;4980542;28;88415;-36
2021/12/23 04:43:19;;;;;;;;;;;0.10;99.90;;;;;;4980310;28;87915;-39
2021/12/23 04:45:44;;;;;;;;;;;0.10;99.90;;;;;;4979876;28;90395;-38
2021/12/23 04:48:10;;;;;;;;;;;0.10;99.90;;;;;;4980279;28;89220;-36
2021/12/23 04:50:35;;;;;;;;;;;0.10;99.90;;;;;;4980155;28;87878;-40
2021/12/23 04:53:01;;;;;;;;;;;0.10;99.90;;;;;;4980158;28;87723;-37
2021/12/23 04:55:28;;;;;;;;;;;0.10;99.90;;;;;;4980040;28;89733;-38
2021/12/23 04:57:54;;;;;;;;;;;0.10;99.90;;;;;;4980316;28;88545;-32
2021/12/23 05:00:21;;;;;;;;;;;0.10;99.90;;;;;;4962778;28;88064;-40
2021/12/23 05:02:46;;;;;;;;;;;0.10;99.90;;;;;;4975011;28;87723;-39
2021/12/23 05:05:13;;;;;;;;;;;0.10;99.90;;;;;;4957107;28;90008;-42
2021/12/23 05:07:38;;;;;;;;;;;0.10;99.90;;;;;;4958077;28;89332;-35
2021/12/23 05:10:05;;;;;;;;;;;0.10;99.90;;;;;;4958010;28;88514;-39
2021/12/23 05:12:31;;;;;;;;;;;0.10;99.90;;;;;;4957776;28;87745;-34
2021/12/23 05:14:56;;;;;;;;;;;0.00;99.90;;;;;;4957379;28;90231;-45
2021/12/23 05:17:22;;;;;;;;;;;0.10;99.90;;;;;;4957235;28;89509;-33
2021/12/23 05:19:47;;;;;;;;;;;0.10;99.90;;;;;;4977864;28;88546;-37
2021/12/23 05:22:13;;;;;;;;;;;0.00;99.90;;;;;;4977984;28;87752;-37
2021/12/23 05:24:38;;;;;;;;;;;0.00;99.90;;;;;;4979234;28;90561;-33
2021/12/23 05:27:04;;;;;;;;;;;0.00;99.90;;;;;;4978615;28;89492;-38
2021/12/23 05:29:29;;;;;;;;;;;0.00;99.90;;;;;;4979684;28;87533;-34
2021/12/23 05:31:55;;;;;;;;;;;0.00;99.90;;;;;;4980255;28;88556;-39
2021/12/23 05:34:20;;;;;;;;;;;0.00;99.90;;;;;;4979059;28;89712;-42
2021/12/23 05:36:46;;;;;;;;;;;0.10;99.90;;;;;;4978338;28;89102;-35
2021/12/23 05:39:11;;;;;;;;;;;0.10;99.90;;;;;;4977507;28;88118;-31
2021/12/23 05:41:37;;;;;;;;;;;0.00;99.90;;;;;;4978212;28;87593;-35
2021/12/23 05:44:02;;;;;;;;;;;0.00;99.90;;;;;;4977767;28;90202;-40
2021/12/23 05:46:28;;;;;;;;;;;0.00;99.90;;;;;;4977399;28;89478;-42
2021/12/23 05:48:53;;;;;;;;;;;0.00;99.90;;;;;;4978231;28;87594;-39
2021/12/23 05:51:19;;;;;;;;;;;0.00;99.90;;;;;;4977959;28;88266;-40
2021/12/23 05:53:45;;;;;;;;;;;0.00;99.90;;;;;;4978014;28;90842;-37
2021/12/23 05:56:10;;;;;;;;;;;0.00;99.90;;;;;;4978559;28;89669;-36
2021/12/23 05:58:36;;;;;;;;;;;0.00;99.90;;;;;;4979025;28;87612;-42
2021/12/23 06:01:02;;;;;;;;;;;0.00;99.90;;;;;;4962138;28;87415;-39
2021/12/23 06:03:27;;;;;;;;;;;0.00;99.90;;;;;;4978640;28;90460;-35
2021/12/23 06:05:53;;;;;;;;;;;0.00;99.90;;;;;;4978765;28;89706;-35
2021/12/23 06:08:18;;;;;;;;;;;0.00;99.90;;;;;;4979331;28;89374;-33
2021/12/23 06:10:44;;;;;;;;;;;0.00;99.90;;;;;;4979298;28;87868;-41
2021/12/23 06:13:09;;;;;;;;;;;0.00;99.90;;;;;;4977783;28;90239;-40
2021/12/23 06:15:35;;;;;;;;;;;0.00;99.90;;;;;;4978459;28;89418;-38
2021/12/23 06:18:01;;;;;;;;;;;0.00;99.90;;;;;;4978990;28;87512;-36
2021/12/23 06:20:26;;;;;;;;;;;0.00;99.90;;;;;;4961252;28;87622;-38
2021/12/23 06:22:52;;;;;;;;;;;0.00;99.90;;;;;;4978197;28;90186;-41
2021/12/23 06:25:18;;;;;;;;;;;0.10;99.90;;;;;;4978687;28;89244;-33
2021/12/23 06:27:44;;;;;;;;;;;0.00;99.90;;;;;;4978728;28;87600;-36
2021/12/23 06:30:28;;;;;;;;;;;0.00;99.90;;;;;;4979017;28;88831;-38
2021/12/23 06:32:55;;;;;;;;;;;0.10;99.90;;;;;;4978648;28;88808;-36
2021/12/23 06:35:21;;;;;;;;;;;0.00;99.90;;;;;;4978446;28;89772;-40
2021/12/23 06:37:47;;;;;;;;;;;0.00;99.90;;;;;;4979178;28;88928;-35
2021/12/23 06:40:13;;;;;;;;;;;0.10;99.90;;;;;;4978198;28;87846;-40
2021/12/23 06:42:39;;;;;;;;;;;0.10;99.90;;;;;;4978529;28;90138;-38
2021/12/23 06:45:06;;;;;;;;;;;0.10;99.90;;;;;;4978799;28;89513;-44
2021/12/23 06:47:32;;;;;;;;;;;0.10;99.90;;;;;;4978751;28;88159;-37
2021/12/23 06:49:57;;;;;;;;;;;0.10;99.90;;;;;;4961761;28;88216;-39
2021/12/23 06:52:23;;;;;;;;;;;0.20;99.90;;;;;;4960339;28;90469;-37
2021/12/23 06:54:52;;;;;;;;;;;0.20;99.90;;;;;;4978475;28;88303;-42
2021/12/23 06:57:18;;;;;;;;;;;0.20;99.90;;;;;;4978415;28;87544;-39
2021/12/23 06:59:44;;;;;;;;;;;0.20;99.90;;;;;;4978738;28;88930;-41
2021/12/23 07:02:09;;;;;;;;;;;0.20;99.90;;;;;;4977373;28;89804;-41
2021/12/23 07:04:36;;;;;;;;;;;0.30;99.90;;;;;;4977953;28;89924;-36
2021/12/23 07:07:18;;;;;;;;;;;0.30;99.90;;;;;;4978011;28;88447;-40
2021/12/23 07:09:43;;;;;;;;;;;0.30;99.90;;;;;;4961168;28;88288;-37
2021/12/23 07:12:10;;;;;;;;;;;0.30;99.90;;;;;;4960094;28;89349;-38
2021/12/23 07:14:36;;;;;;;;;;;0.30;99.90;;;;;;4978351;28;89801;-35
2021/12/23 07:17:02;;;;;;;;;;;0.30;99.90;;;;;;4978111;28;87544;-39
2021/12/23 07:19:28;;;;;;;;;;;0.30;99.90;;;;;;4978488;28;88211;-40
2021/12/23 07:21:53;;;;;;;;;;;0.30;99.90;;;;;;4977602;28;90617;-39
2021/12/23 07:24:20;;;;;;;;;;;0.30;99.90;;;;;;4974913;28;89459;-36
2021/12/23 07:26:45;;;;;;;;;;;0.30;99.90;;;;;;4957044;28;87696;-38
2021/12/23 07:29:11;;;;;;;;;;;0.30;99.90;;;;;;4965868;28;87567;-35
2021/12/23 07:31:36;;;;;;;;;;;0.30;99.90;;;;;;4960089;28;90359;-35
2021/12/23 07:34:02;;;;;;;;;;;0.30;99.90;;;;;;4977499;28;89555;-42
2021/12/23 07:36:27;;;;;;;;;;;0.30;99.90;;;;;;4957301;28;87713;-38
2021/12/23 07:38:54;;;;;;;;;;;0.30;99.90;;;;;;4930136;28;88689;-41
2021/12/23 07:41:19;;;;;;;;;;;0.40;99.90;;;;;;4970624;28;90191;-41
2021/12/23 07:43:57;;;;;;;;;;;0.40;99.90;;;;;;4957637;28;89939;-42
2021/12/23 07:46:24;;;;;;;;;;;0.40;99.90;;;;;;4958306;28;87905;-34
2021/12/23 07:48:49;;;;;;;;;;;0.40;99.90;;;;;;4958625;28;89274;-38
2021/12/23 07:51:15;;;;;;;;;;;0.30;99.90;;;;;;4957074;28;89541;-37
2021/12/23 07:53:40;;;;;;;;;;;0.40;99.90;;;;;;4957175;28;90038;-38
2021/12/23 07:56:06;;;;;;;;;;;0.40;99.90;;;;;;4957996;28;87627;-37
2021/12/23 07:58:31;;;;;;;;;;;0.50;99.90;;;;;;4957883;28;88495;-36
2021/12/23 08:00:57;;;;;;;;;;;0.40;99.90;;;;;;4940683;28;91796;-35
2021/12/23 08:03:22;;;;;;;;;;;0.50;99.90;;;;;;4957857;28;89454;-38
2021/12/23 08:05:48;;;;;;;;;;;0.50;99.90;;;;;;4958334;28;87527;-37
2021/12/23 08:08:14;;;;;;;;;;;0.60;99.90;;;;;;4958094;28;87572;-32
2021/12/23 08:10:39;;;;;;;;;;;0.50;99.90;;;;;;4957719;28;90503;-36
2021/12/23 08:13:07;;;;;;;;;;;0.50;99.90;;;;;;4963175;28;89873;-38
2021/12/23 08:15:33;;;;;;;;;;;0.50;99.90;;;;;;4949757;28;88681;-40
2021/12/23 08:17:58;;;;;;;;;;;0.50;99.90;;;;;;4975152;28;87550;-36
2021/12/23 08:20:24;;;;;;;;;;;0.60;99.90;;;;;;4958720;28;90150;-37
2021/12/23 08:22:49;;;;;;;;;;;0.50;99.90;;;;;;4951189;28;88491;-35
2021/12/23 08:25:15;;;;;;;;;;;0.50;99.90;;;;;;4977002;28;87889;-35
2021/12/23 08:27:41;;;;;;;;;;;0.50;99.90;;;;;;4977624;28;88978;-39
2021/12/23 08:30:08;;;;;;;;;;;0.50;99.90;;;;;;4977081;28;90562;-37
2021/12/23 08:32:33;;;;;;;;;;;0.50;99.90;;;;;;4976697;28;91719;-36
2021/12/23 08:34:59;;;;;;;;;;;0.60;99.90;;;;;;4977113;28;87522;-33
2021/12/23 08:37:25;;;;;;;;;;;0.50;99.90;;;;;;4978714;28;88724;-43
2021/12/23 08:39:51;;;;;;;;;;;0.50;99.90;;;;;;4980514;28;89081;-34
2021/12/23 08:42:17;;;;;;;;;;;0.60;99.90;;;;;;4980130;28;88505;-39
2021/12/23 08:44:42;;;;;;;;;;;0.60;99.90;;;;;;4980650;28;89346;-40
2021/12/23 08:47:08;;;;;;;;;;;0.70;99.90;;;;;;4980799;28;87631;-36
2021/12/23 08:49:33;;;;;;;;;;;0.70;99.90;;;;;;4980221;28;90403;-40
2021/12/23 08:51:59;;;;;;;;;;;0.70;99.90;;;;;;4980439;28;89594;-36
2021/12/23 08:54:25;;;;;;;;;;;0.70;99.90;;;;;;4980244;28;87588;-43
2021/12/23 08:56:50;;;;;;;;;;;0.70;99.90;;;;;;4980720;28;87632;-34
2021/12/23 08:59:17;;;;;;;;;;;0.70;99.90;;;;;;4979828;28;90676;-35
2021/12/23 09:01:42;;;;;;;;;;;0.70;99.90;;;;;;4978290;28;90051;-40
2021/12/23 09:04:08;;;;;;;;;;;0.70;99.90;;;;;;4977852;28;88696;-38
2021/12/23 09:06:33;;;;;;;;;;;0.60;99.90;;;;;;4978030;28;89455;-42
2021/12/23 09:08:59;;;;;;;;;;;0.70;99.90;;;;;;4977687;28;90251;-34
2021/12/23 09:11:25;;;;;;;;;;;0.70;99.90;;;;;;4977894;28;89181;-41
2021/12/23 09:13:51;;;;;;;;;;;0.60;99.90;;;;;;4961204;28;88586;-37
2021/12/23 09:16:17;;;;;;;;;;;0.60;99.90;;;;;;4977910;28;87783;-41
2021/12/23 09:18:42;;;;;;;;;;;0.60;99.90;;;;;;4977121;28;89590;-37
2021/12/23 09:21:08;;;;;;;;;;;0.60;99.90;;;;;;4977648;28;89348;-35
2021/12/23 09:23:33;;;;;;;;;;;0.60;99.90;;;;;;4938507;28;87861;-41
2021/12/23 09:25:59;;;;;;;;;;;0.60;99.90;;;;;;4937620;28;88840;-39
2021/12/23 09:29:12;;;;;;;;;;;0.60;99.90;;;;;;4877551;28;89574;-40
2021/12/23 09:33:57;;;;;;;;;;;0.60;99.90;;;;;;4916689;28;89751;-37
2021/12/23 09:36:23;;;;;;;;;;;0.60;99.90;;;;;;4912312;28;88442;-38
2021/12/23 09:38:48;;;;;;;;;;;0.60;99.90;;;;;;4957579;28;90246;-39
2021/12/23 09:41:16;;;;;;;;;;;0.60;99.90;;;;;;4888766;28;94059;-38
2021/12/23 09:43:42;;;;;;;;;;;0.60;99.90;;;;;;4957854;28;87590;-43
2021/12/23 09:46:10;;;;;;;;;;;0.60;99.90;;;;;;4940540;28;89143;-34
2021/12/23 09:48:35;;;;;;;;;;;0.60;99.90;;;;;;4955851;28;88738;-43
2021/12/23 09:53:18;;;;;;;;;;;0.60;99.90;;;;;;4878270;27;89133;-41
2021/12/23 09:55:43;;;;;;;;;;;0.60;99.90;;;;;;4974466;27;87775;-37
2021/12/23 09:58:09;;;;;;;;;;;0.70;99.90;;;;;;5011742;28;87569;-38
2021/12/23 10:00:37;;;;;;;;;;;0.60;99.90;;;;;;5012169;28;90525;-41
2021/12/23 10:03:03;;;;;;;;;;;0.60;99.90;;;;;;5012396;28;89999;-32
2021/12/23 10:05:31;;;;;;;;;;;0.70;99.90;;;;;;5012157;28;87507;-38
2021/12/23 10:07:57;;;;;;;;;;;0.60;99.90;;;;;;5012677;28;87669;-38
2021/12/23 10:10:30;;;;;;;;;;;0.70;99.90;;;;;;5012558;28;90282;-37
2021/12/23 10:26:48;;;;;;;;;;;0.70;99.90;;;;;;5012489;28;89913;-35
2021/12/23 10:27:20;;;;;;;;;;;0.60;99.90;;;;;;5012709;28;88307;-35
2021/12/23 10:37:32;;;;;;;;;;;0.70;99.90;;;;;;4992252;28;87496;-37
2021/12/23 10:42:10;;;;;;;39.33;28.73;;;0.70;99.90;;;;;;5054415;27;87427;-37
2021/12/23 10:44:36;;;;;;;47.42;33.72;;;0.70;99.90;;;;;;5015449;27;88235;-39
2021/12/23 10:47:02;;;;;;;50.88;36.17;;;0.80;99.90;;;;;;4988030;27;88489;-37
2021/12/23 10:49:40;;;;;;;46.35;34.15;;;0.80;99.90;;;;;;4974662;28;90761;-39
2021/12/23 10:52:14;;;;;;;50.55;36.47;;;0.80;99.90;;;;;;5009321;28;89411;-35
2021/12/23 11:00:22;;;;;;;49.55;37.17;;;0.80;99.90;;;;;;5009122;28;90802;-37
2021/12/23 11:03:13;;;;;;;;;;;0.80;99.90;;;;;;4980847;28;89145;-39
2021/12/23 11:05:47;;;;;;;43.60;33.33;;;0.80;99.90;;;;;;5011872;28;88225;-35
2021/12/23 11:30:53;;;;;;;46.58;36.67;;;0.80;99.90;;;;;;4962122;28;91392;-37
2021/12/23 11:41:32;;;;;;;48.22;34.50;;;0.70;99.90;;;;;;4964185;28;90616;-42
2021/12/23 11:44:01;;;;;;;61.78;42.22;;;0.80;99.90;;;;;;4988412;28;90219;-36
2021/12/23 11:47:12;;;;;;;60.58;42.88;;;0.80;99.90;;;;;;4987410;28;88516;-41
2021/12/23 11:49:27;;;;;;;57.63;40.60;;;0.80;99.90;;;;;;4984394;28;87718;-32
2021/12/23 11:54:22;;;;;;;56.30;42.58;;;0.80;99.90;;;;;;4984944;28;89268;-41
2021/12/23 11:56:58;;;;;;;54.75;39.35;;;0.80;99.90;;;;;;4993748;28;89487;-37
2021/12/23 11:59:25;;;;;;;57.42;42.15;;;0.80;99.90;;;;;;4994426;28;88859;-36
2021/12/23 12:01:53;;;;;;;52.60;39.17;;;0.90;99.90;;;;;;4994507;28;88418;-38
2021/12/23 12:04:31;;;;;;;51.35;37.42;;;0.80;99.90;;;;;;4994609;28;90312;-33
2021/12/23 12:06:58;;;;;;;59.00;37.33;;;0.90;99.90;;;;;;4994241;28;89460;-39
2021/12/23 12:09:31;;;;;;;57.30;41.58;;;0.80;99.90;;;;;;4994612;28;88799;-34
2021/12/23 12:11:59;;;;;;;56.55;42.20;;;0.90;99.90;;;;;;4994286;28;88135;-35
2021/12/23 12:14:39;;;;;;;51.75;34.63;;;0.80;99.90;;;;;;4993355;28;90210;-39
2021/12/23 12:17:23;;;;;;;56.42;38.83;;;0.90;99.90;;;;;;4991098;28;89619;-38
2021/12/23 12:20:01;;;;;;;54.40;38.22;;;0.90;99.90;;;;;;4993109;28;87671;-37
2021/12/23 12:22:46;;;;;;;56.47;40.07;;;0.80;99.90;;;;;;4994344;28;88071;-35
2021/12/23 12:25:37;;;;;;;51.47;38.03;;;0.90;99.90;;;;;;4994226;28;90259;-32
2021/12/23 12:28:03;;;;;;;53.85;37.20;;;0.90;99.90;;;;;;4987373;28;89493;-38
2021/12/23 12:30:44;;;;;;;55.42;41.60;;;0.90;99.90;;;;;;4992920;28;87786;-39
2021/12/23 12:33:11;;;;;;;60.33;40.00;;;0.90;99.90;;;;;;4993391;28;87906;-36
2021/12/23 12:35:39;;;;;;;54.65;41.55;;;0.90;99.90;;;;;;4993838;28;90326;-38
2021/12/23 12:38:20;;;;;;;60.27;42.20;;;1.00;99.90;;;;;;4993979;28;88593;-40
2021/12/23 12:41:07;;;;;;;63.53;43.22;;;1.00;99.90;;;;;;4993372;28;88690;-39
2021/12/23 12:43:45;;;;;;;60.40;43.33;;;0.90;99.90;;;;;;4993020;28;89199;-41
2021/12/23 12:46:48;;;;;;;49.88;36.05;;;0.90;99.90;;;;;;4990886;28;90572;-40
2021/12/23 12:49:23;;;;;;;55.13;42.33;;;0.90;99.90;;;;;;4963752;28;89551;-43
2021/12/23 12:51:50;;;;;;;59.78;40.05;;;1.00;99.90;;;;;;4981315;28;89206;-43
2021/12/23 12:54:30;;;;;;;63.85;40.22;;;1.00;99.90;;;;;;4980868;28;89159;-42
2021/12/23 12:56:59;;;;;;;50.80;40.03;;;1.00;99.90;;;;;;4979390;28;90895;-38
2021/12/23 12:59:28;;;;;;;48.92;36.00;;;1.00;99.90;;;;;;4980160;28;89782;-38
2021/12/23 13:01:54;;;;;;;;;;;1.00;99.90;;;;;;4980603;28;89329;-45
2021/12/23 13:04:22;;;;;;;53.00;36.65;;;1.00;99.90;;;;;;4982096;28;88588;-39
2021/12/23 13:06:48;;;;;;;59.30;39.33;;;1.10;99.90;;;;;;4979023;28;90795;-37
2021/12/23 13:09:15;;;;;;;56.58;42.55;;;1.10;99.90;;;;;;4980511;28;89468;-46
2021/12/23 13:11:42;;;;;;;48.67;38.63;;;1.00;99.90;;;;;;4981564;28;87610;-43
2021/12/23 13:14:14;;;;;;;57.03;42.42;;;1.10;99.90;;;;;;4981057;28;89047;-40
2021/12/23 13:16:54;;;;;;;59.40;40.58;;;1.00;99.90;;;;;;4980035;28;90920;-36
2021/12/23 13:19:21;;;;;;;57.40;41.88;;;1.00;99.90;;;;;;4979164;28;89848;-39
2021/12/23 13:24:22;;;;;;;48.53;38.95;;;1.00;99.90;;;;;;4957703;28;89570;-44
2021/12/23 13:26:49;;;;;;;51.20;40.83;;;1.10;99.90;;;;;;4958951;28;90498;-37
2021/12/23 13:29:15;;;;;;;59.88;42.92;;;1.10;99.90;;;;;;4958383;28;88508;-37
2021/12/23 13:31:43;;;;;;;61.65;41.28;;;1.10;99.90;;;;;;4958794;28;89609;-45
2021/12/23 13:34:16;;;;;;;59.78;40.05;;;1.10;99.90;;;;;;4959225;28;88657;-41
2021/12/23 13:36:44;;;;;;;58.17;42.50;;;1.00;99.90;;;;;;4958484;28;89954;-38
2021/12/23 13:39:16;;;;;;;56.97;41.10;;;1.10;99.90;;;;;;4958673;28;89153;-39
2021/12/23 13:41:45;;;;;;;54.25;38.67;;;1.00;99.90;;;;;;4958719;28;88954;-35
2021/12/23 13:44:24;;;;;;;60.75;41.65;;;1.10;99.90;;;;;;4958922;28;87587;-42
2021/12/23 13:47:18;;;;;;;58.28;38.92;;;1.10;99.90;;;;;;4958748;28;91000;-38
2021/12/23 13:49:59;;;;;;;51.95;40.10;;;1.10;99.90;;;;;;4959007;28;89874;-44
2021/12/23 13:52:28;;;;;;;56.85;41.95;;;1.10;99.90;;;;;;4958056;28;88725;-37
2021/12/23 13:55:01;;;;;;;54.22;40.08;;;1.10;99.90;;;;;;4958355;28;87943;-44
2021/12/23 13:57:30;;;;;;;56.85;40.78;;;1.10;99.90;;;;;;4957728;28;92427;-39
2021/12/23 13:59:56;;;;;;;56.80;40.88;;;1.10;99.90;;;;;;4958376;28;89746;-39
2021/12/23 14:02:25;;;;;;;60.85;40.35;;;1.10;99.90;;;;;;4958394;28;90050;-40
2021/12/23 14:04:58;;;;;;;57.08;40.60;;;1.10;99.90;;;;;;4959036;28;89513;-44
2021/12/23 14:07:26;;;;;;;59.97;44.80;;;1.20;99.90;;;;;;4957778;28;90435;-40
2021/12/23 14:09:55;;;;;;;56.38;42.92;;;1.20;99.90;;;;;;4958199;28;89632;-46
2021/12/23 14:12:40;;;;;;;59.35;40.75;;;1.10;99.90;;;;;;4958785;28;88886;-34
2021/12/23 14:15:07;;;;;;;61.65;40.22;;;1.10;99.90;;;;;;4957348;28;88794;-40
2021/12/23 14:17:38;;;;;;;54.13;39.72;;;1.10;99.90;;;;;;4957560;28;89046;-42
2021/12/23 14:23:12;;;;;;;59.25;39.03;;;1.10;99.90;;;;;;4928563;28;89175;-34
2021/12/23 14:25:58;;;;;;;56.20;40.43;;;1.10;99.90;;;;;;4958495;28;88785;-39
2021/12/23 14:28:47;;;;;;;49.22;38.28;;;1.10;99.90;;;;;;4957443;28;90463;-36
2021/12/23 14:31:34;;;;;;;59.92;38.67;;;1.10;99.90;;;;;;4957577;28;89883;-40
2021/12/23 14:34:09;;;;;;;65.90;43.13;;;1.10;99.90;;;;;;4958467;28;87559;-39
2021/12/23 14:36:37;;;;;;;54.72;37.97;;;1.10;99.90;;;;;;4958521;28;89670;-41
2021/12/23 14:39:12;;;;;;;59.53;40.95;;;1.10;99.90;;;;;;4958022;28;90203;-35
2021/12/23 14:41:51;;;;;;;55.95;40.63;;;1.10;99.90;;;;;;4958373;28;90710;-41
2021/12/23 14:44:21;;;;;;;61.03;41.15;;;1.10;99.90;;;;;;4958174;28;87581;-44
2021/12/23 14:46:51;;;;;;;53.17;38.45;;;1.10;99.90;;;;;;4956870;28;89604;-46
2021/12/23 14:52:14;;;;;;;53.33;38.13;;;1.10;99.90;;;;;;4958656;28;89414;-35
2021/12/23 14:54:46;;;;;;;53.65;39.22;;;1.10;99.90;;;;;;4957967;28;88835;-39
2021/12/23 14:57:17;;;;;;;55.08;37.22;;;1.10;99.90;;;;;;4958468;28;90125;-36
2021/12/23 14:59:51;;;;;;;53.03;38.22;;;1.10;99.90;;;;;;4958614;28;90701;-36
2021/12/23 15:02:20;;;;;;;57.95;42.45;;;1.20;99.90;;;;;;4957056;28;89740;-43
2021/12/23 15:05:02;;;;;;;59.53;41.08;;;1.20;99.90;;;;;;4957817;28;90191;-37
2021/12/23 15:07:54;;;;;;;58.67;40.42;;;1.20;99.90;;;;;;4957908;28;89629;-34
2021/12/23 15:10:26;;;;;;;62.50;42.33;;;1.20;99.90;;;;;;4958011;28;90739;-39
2021/12/23 15:12:51;;;;;;;58.65;43.40;;;1.20;99.90;;;;;;4957464;28;89659;-41
2021/12/23 15:15:17;;;;;;;58.70;42.45;;;1.20;99.90;;;;;;4958089;28;90027;-42
2021/12/23 15:17:53;;;;;;;58.00;41.58;;;1.10;99.90;;;;;;4957367;28;88014;-44
2021/12/23 15:20:25;;;;;;;52.30;36.20;;;1.20;99.90;;;;;;4957663;28;89830;-40
2021/12/23 15:22:51;;;;;;;56.75;40.40;;;1.10;99.90;;;;;;4957453;28;89663;-36
2021/12/23 15:25:16;;;;;;;53.33;40.60;;;1.20;99.90;;;;;;4956980;28;87491;-41